sensor_id;sensor_type;location;lat;lon;timestamp;temperature;humidity
76936;DHT22;65881;52.438;16.744;2024-01-30T00:01:22;0.00;99.90
76936;DHT22;65881;52.438;16.744;2024-01-30T00:03:48;0.00;99.90
76936;DHT22;65881;52.438;16.744;2024-01-30T00:06:14;-0.10;99.90
76936;DHT22;65881;52.438;16.744;2024-01-30T00:08:39;-0.10;99.90
76936;DHT22;65881;52.438;16.744;2024-01-30T00:11:05;-0.10;99.90
76936;DHT22;65881;52.438;16.744;2024-01-30T00:13:32;-0.20;99.90
76936;DHT22;65881;52.438;16.744;2024-01-30T00:15:58;-0.30;99.90
76936;DHT22;65881;52.438;16.744;2024-01-30T00:18:23;-0.30;99.90
76936;DHT22;65881;52.438;16.744;2024-01-30T00:20:49;-0.30;99.90
76936;DHT22;65881;52.438;16.744;2024-01-30T00:23:15;-0.30;99.90
76936;DHT22;65881;52.438;16.744;2024-01-30T00:25:40;-0.30;99.90
76936;DHT22;65881;52.438;16.744;2024-01-30T00:28:06;-0.30;99.90
76936;DHT22;65881;52.438;16.744;2024-01-30T00:30:31;-0.30;99.90
76936;DHT22;65881;52.438;16.744;2024-01-30T00:32:57;-0.30;99.90
76936;DHT22;65881;52.438;16.744;2024-01-30T00:35:22;-0.30;99.90
76936;DHT22;65881;52.438;16.744;2024-01-30T00:37:48;-0.30;99.90
76936;DHT22;65881;52.438;16.744;2024-01-30T00:40:14;-0.20;99.90
76936;DHT22;65881;52.438;16.744;2024-01-30T00:42:44;-0.10;99.90
76936;DHT22;65881;52.438;16.744;2024-01-30T00:45:16;-0.10;99.90
76936;DHT22;65881;52.438;16.744;2024-01-30T00:47:42;0.00;99.90
76936;DHT22;65881;52.438;16.744;2024-01-30T00:50:08;-0.10;99.90
76936;DHT22;65881;52.438;16.744;2024-01-30T00:52:34;-0.10;99.90
76936;DHT22;65881;52.438;16.744;2024-01-30T00:55:00;-0.10;99.90
76936;DHT22;65881;52.438;16.744;2024-01-30T00:57:26;-0.10;99.90
76936;DHT22;65881;52.438;16.744;2024-01-30T00:59:52;-0.10;99.90
76936;DHT22;65881;52.438;16.744;2024-01-30T01:02:18;-0.20;99.90
76936;DHT22;65881;52.438;16.744;2024-01-30T01:04:44;-0.30;99.90
76936;DHT22;65881;52.438;16.744;2024-01-30T01:07:10;-0.30;99.90
76936;DHT22;65881;52.438;16.744;2024-01-30T01:09:36;-0.40;99.90
76936;DHT22;65881;52.438;16.744;2024-01-30T01:12:02;-0.40;99.90
76936;DHT22;65881;52.438;16.744;2024-01-30T01:14:28;-0.40;99.90
76936;DHT22;65881;52.438;16.744;2024-01-30T01:16:53;-0.40;99.90
76936;DHT22;65881;52.438;16.744;2024-01-30T01:19:19;-0.50;99.90
76936;DHT22;65881;52.438;16.744;2024-01-30T01:21:44;-0.50;99.90
76936;DHT22;65881;52.438;16.744;2024-01-30T01:24:10;-0.50;99.90
76936;DHT22;65881;52.438;16.744;2024-01-30T01:26:36;-0.50;99.90
76936;DHT22;65881;52.438;16.744;2024-01-30T01:29:01;-0.60;99.90
76936;DHT22;65881;52.438;16.744;2024-01-30T01:31:29;-0.60;99.90
76936;DHT22;65881;52.438;16.744;2024-01-30T01:33:55;-0.50;99.90
76936;DHT22;65881;52.438;16.744;2024-01-30T01:36:21;-0.40;99.90
76936;DHT22;65881;52.438;16.744;2024-01-30T01:38:46;-0.40;99.90
76936;DHT22;65881;52.438;16.744;2024-01-30T01:41:12;-0.30;99.90
76936;DHT22;65881;52.438;16.744;2024-01-30T01:43:37;-0.20;99.90
76936;DHT22;65881;52.438;16.744;2024-01-30T01:46:05;-0.30;99.90
76936;DHT22;65881;52.438;16.744;2024-01-30T01:48:31;-0.20;99.90
76936;DHT22;65881;52.438;16.744;2024-01-30T01:50:57;-0.30;99.90
76936;DHT22;65881;52.438;16.744;2024-01-30T01:53:23;-0.30;99.90
76936;DHT22;65881;52.438;16.744;2024-01-30T01:55:49;-0.20;99.90
76936;DHT22;65881;52.438;16.744;2024-01-30T01:58:16;-0.20;99.90
76936;DHT22;65881;52.438;16.744;2024-01-30T02:00:42;-0.20;99.90
76936;DHT22;65881;52.438;16.744;2024-01-30T02:03:10;-0.20;99.90
76936;DHT22;65881;52.438;16.744;2024-01-30T02:05:37;-0.30;99.90
76936;DHT22;65881;52.438;16.744;2024-01-30T02:08:03;-0.30;99.90
76936;DHT22;65881;52.438;16.744;2024-01-30T02:10:29;-0.40;99.90
76936;DHT22;65881;52.438;16.744;2024-01-30T02:12:54;-0.40;99.90
76936;DHT22;65881;52.438;16.744;2024-01-30T02:15:20;-0.40;99.90
76936;DHT22;65881;52.438;16.744;2024-01-30T02:17:46;-0.40;99.90
76936;DHT22;65881;52.438;16.744;2024-01-30T02:20:11;-0.40;99.90
76936;DHT22;65881;52.438;16.744;2024-01-30T02:22:38;-0.30;99.90
76936;DHT22;65881;52.438;16.744;2024-01-30T02:25:06;-0.30;99.90
76936;DHT22;65881;52.438;16.744;2024-01-30T02:27:31;-0.30;99.90
76936;DHT22;65881;52.438;16.744;2024-01-30T02:29:57;-0.30;99.90
76936;DHT22;65881;52.438;16.744;2024-01-30T02:32:23;-0.30;99.90
76936;DHT22;65881;52.438;16.744;2024-01-30T02:34:48;-0.30;99.90
76936;DHT22;65881;52.438;16.744;2024-01-30T02:37:14;-0.30;99.90
76936;DHT22;65881;52.438;16.744;2024-01-30T02:39:39;-0.20;99.90
76936;DHT22;65881;52.438;16.744;2024-01-30T02:42:05;-0.30;99.90
76936;DHT22;65881;52.438;16.744;2024-01-30T02:44:31;-0.20;99.90
76936;DHT22;65881;52.438;16.744;2024-01-30T02:46:56;-0.20;99.90
76936;DHT22;65881;52.438;16.744;2024-01-30T02:49:22;-0.20;99.90
76936;DHT22;65881;52.438;16.744;2024-01-30T02:51:47;-0.20;99.90
76936;DHT22;65881;52.438;16.744;2024-01-30T02:54:13;-0.30;99.90
76936;DHT22;65881;52.438;16.744;2024-01-30T02:56:39;-0.30;99.90
76936;DHT22;65881;52.438;16.744;2024-01-30T02:59:05;-0.30;99.90
76936;DHT22;65881;52.438;16.744;2024-01-30T03:01:30;-0.30;99.90
76936;DHT22;65881;52.438;16.744;2024-01-30T03:03:57;-0.30;99.90
76936;DHT22;65881;52.438;16.744;2024-01-30T03:06:22;-0.30;99.90
76936;DHT22;65881;52.438;16.744;2024-01-30T03:08:48;-0.40;99.90
76936;DHT22;65881;52.438;16.744;2024-01-30T03:11:14;-0.40;99.90
76936;DHT22;65881;52.438;16.744;2024-01-30T03:13:39;-0.30;99.90
76936;DHT22;65881;52.438;16.744;2024-01-30T03:16:06;-0.30;99.90
76936;DHT22;65881;52.438;16.744;2024-01-30T03:18:31;-0.30;99.90
76936;DHT22;65881;52.438;16.744;2024-01-30T03:20:57;-0.30;99.90
76936;DHT22;65881;52.438;16.744;2024-01-30T03:23:22;-0.20;99.90
76936;DHT22;65881;52.438;16.744;2024-01-30T03:25:48;-0.20;99.90
76936;DHT22;65881;52.438;16.744;2024-01-30T03:28:13;-0.10;99.90
76936;DHT22;65881;52.438;16.744;2024-01-30T03:30:40;-0.10;99.90
76936;DHT22;65881;52.438;16.744;2024-01-30T03:33:06;0.00;99.90
76936;DHT22;65881;52.438;16.744;2024-01-30T03:35:31;-0.10;99.90
76936;DHT22;65881;52.438;16.744;2024-01-30T03:37:57;-0.10;99.90
76936;DHT22;65881;52.438;16.744;2024-01-30T03:40:22;-0.10;99.90
76936;DHT22;65881;52.438;16.744;2024-01-30T03:42:48;-0.10;99.90
76936;DHT22;65881;52.438;16.744;2024-01-30T03:45:14;-0.10;99.90
76936;DHT22;65881;52.438;16.744;2024-01-30T03:47:39;-0.10;99.90
76936;DHT22;65881;52.438;16.744;2024-01-30T03:50:05;-0.10;99.90
76936;DHT22;65881;52.438;16.744;2024-01-30T03:52:31;-0.10;99.90
76936;DHT22;65881;52.438;16.744;2024-01-30T03:54:56;-0.10;99.90
76936;DHT22;65881;52.438;16.744;2024-01-30T03:57:22;-0.10;99.90
76936;DHT22;65881;52.438;16.744;2024-01-30T03:59:48;-0.10;99.90
76936;DHT22;65881;52.438;16.744;2024-01-30T04:02:13;-0.10;99.90
76936;DHT22;65881;52.438;16.744;2024-01-30T04:04:39;-0.10;99.90
76936;DHT22;65881;52.438;16.744;2024-01-30T04:07:05;-0.10;99.90
76936;DHT22;65881;52.438;16.744;2024-01-30T04:09:30;-0.10;99.90
76936;DHT22;65881;52.438;16.744;2024-01-30T04:11:58;-0.10;99.90
76936;DHT22;65881;52.438;16.744;2024-01-30T04:14:23;-0.10;99.90
76936;DHT22;65881;52.438;16.744;2024-01-30T04:16:49;-0.10;99.90
76936;DHT22;65881;52.438;16.744;2024-01-30T04:19:14;-0.10;99.90
76936;DHT22;65881;52.438;16.744;2024-01-30T04:21:40;-0.10;99.90
76936;DHT22;65881;52.438;16.744;2024-01-30T04:24:06;0.00;99.90
76936;DHT22;65881;52.438;16.744;2024-01-30T04:26:31;0.00;99.90
76936;DHT22;65881;52.438;16.744;2024-01-30T04:28:57;-0.10;99.90
76936;DHT22;65881;52.438;16.744;2024-01-30T04:31:23;-0.10;99.90
76936;DHT22;65881;52.438;16.744;2024-01-30T04:33:48;-0.10;99.90
76936;DHT22;65881;52.438;16.744;2024-01-30T04:36:15;-0.10;99.90
76936;DHT22;65881;52.438;16.744;2024-01-30T04:38:41;-0.10;99.90
76936;DHT22;65881;52.438;16.744;2024-01-30T04:41:07;-0.10;99.90
76936;DHT22;65881;52.438;16.744;2024-01-30T04:43:33;-0.20;99.90
76936;DHT22;65881;52.438;16.744;2024-01-30T04:45:58;-0.20;99.90
76936;DHT22;65881;52.438;16.744;2024-01-30T04:48:24;-0.20;99.90
76936;DHT22;65881;52.438;16.744;2024-01-30T04:50:49;-0.30;99.90
76936;DHT22;65881;52.438;16.744;2024-01-30T04:53:15;-0.40;99.90
76936;DHT22;65881;52.438;16.744;2024-01-30T04:55:41;-0.40;99.90
76936;DHT22;65881;52.438;16.744;2024-01-30T04:58:08;-0.50;99.90
76936;DHT22;65881;52.438;16.744;2024-01-30T05:00:33;-0.60;99.90
76936;DHT22;65881;52.438;16.744;2024-01-30T05:03:00;-0.60;99.90
76936;DHT22;65881;52.438;16.744;2024-01-30T05:05:26;-0.70;99.90
76936;DHT22;65881;52.438;16.744;2024-01-30T05:07:52;-0.60;99.90
76936;DHT22;65881;52.438;16.744;2024-01-30T05:10:18;-0.60;99.90
76936;DHT22;65881;52.438;16.744;2024-01-30T05:12:45;-0.60;99.90
76936;DHT22;65881;52.438;16.744;2024-01-30T05:15:13;-0.60;99.90
76936;DHT22;65881;52.438;16.744;2024-01-30T05:17:38;-0.60;99.90
76936;DHT22;65881;52.438;16.744;2024-01-30T05:20:04;-0.70;99.90
76936;DHT22;65881;52.438;16.744;2024-01-30T05:22:31;-0.70;99.90
76936;DHT22;65881;52.438;16.744;2024-01-30T05:25:05;-0.70;99.90
76936;DHT22;65881;52.438;16.744;2024-01-30T05:27:42;-0.70;99.90
76936;DHT22;65881;52.438;16.744;2024-01-30T05:30:10;-0.70;99.90
76936;DHT22;65881;52.438;16.744;2024-01-30T05:32:35;-0.70;99.90
76936;DHT22;65881;52.438;16.744;2024-01-30T05:35:01;-0.70;99.90
76936;DHT22;65881;52.438;16.744;2024-01-30T05:37:52;-0.70;99.90
76936;DHT22;65881;52.438;16.744;2024-01-30T05:40:18;-0.70;99.90
76936;DHT22;65881;52.438;16.744;2024-01-30T05:42:43;-0.70;99.90
76936;DHT22;65881;52.438;16.744;2024-01-30T05:45:09;-0.70;99.90
76936;DHT22;65881;52.438;16.744;2024-01-30T05:47:35;-0.70;99.90
76936;DHT22;65881;52.438;16.744;2024-01-30T05:50:00;-0.70;99.90
76936;DHT22;65881;52.438;16.744;2024-01-30T05:52:32;-0.70;99.90
76936;DHT22;65881;52.438;16.744;2024-01-30T05:55:01;-0.70;99.90
76936;DHT22;65881;52.438;16.744;2024-01-30T05:57:30;-0.70;99.90
76936;DHT22;65881;52.438;16.744;2024-01-30T06:00:17;-0.70;99.90
76936;DHT22;65881;52.438;16.744;2024-01-30T06:02:43;-0.70;99.90
76936;DHT22;65881;52.438;16.744;2024-01-30T06:05:08;-0.80;99.90
76936;DHT22;65881;52.438;16.744;2024-01-30T06:07:35;-0.80;99.90
76936;DHT22;65881;52.438;16.744;2024-01-30T06:10:01;-0.80;99.90
76936;DHT22;65881;52.438;16.744;2024-01-30T06:12:27;-0.80;99.90
76936;DHT22;65881;52.438;16.744;2024-01-30T06:14:53;-0.90;99.90
76936;DHT22;65881;52.438;16.744;2024-01-30T06:17:22;-0.90;99.90
76936;DHT22;65881;52.438;16.744;2024-01-30T06:19:48;-0.90;99.90
76936;DHT22;65881;52.438;16.744;2024-01-30T06:22:13;-0.90;99.90
76936;DHT22;65881;52.438;16.744;2024-01-30T06:24:39;-0.90;99.90
76936;DHT22;65881;52.438;16.744;2024-01-30T06:27:04;-0.90;99.90
76936;DHT22;65881;52.438;16.744;2024-01-30T06:29:30;-1.00;99.90
76936;DHT22;65881;52.438;16.744;2024-01-30T06:31:56;-1.00;99.90
76936;DHT22;65881;52.438;16.744;2024-01-30T06:34:22;-0.90;99.90
76936;DHT22;65881;52.438;16.744;2024-01-30T06:36:48;-1.00;99.90
76936;DHT22;65881;52.438;16.744;2024-01-30T06:39:14;-0.90;99.90
76936;DHT22;65881;52.438;16.744;2024-01-30T06:41:39;-0.90;99.90
76936;DHT22;65881;52.438;16.744;2024-01-30T06:44:05;-0.80;99.90
76936;DHT22;65881;52.438;16.744;2024-01-30T06:46:32;-0.80;99.90
76936;DHT22;65881;52.438;16.744;2024-01-30T06:48:58;-0.70;99.90
76936;DHT22;65881;52.438;16.744;2024-01-30T06:51:23;-0.70;99.90
76936;DHT22;65881;52.438;16.744;2024-01-30T06:53:49;-0.70;99.90
76936;DHT22;65881;52.438;16.744;2024-01-30T06:56:15;-0.70;99.90
76936;DHT22;65881;52.438;16.744;2024-01-30T06:58:40;-0.70;99.90
76936;DHT22;65881;52.438;16.744;2024-01-30T07:01:06;-0.70;99.90
76936;DHT22;65881;52.438;16.744;2024-01-30T07:03:32;-0.60;99.90
76936;DHT22;65881;52.438;16.744;2024-01-30T07:05:58;-0.60;99.90
76936;DHT22;65881;52.438;16.744;2024-01-30T07:08:24;-0.60;99.90
76936;DHT22;65881;52.438;16.744;2024-01-30T07:10:49;-0.60;99.90
76936;DHT22;65881;52.438;16.744;2024-01-30T07:13:15;-0.60;99.90
76936;DHT22;65881;52.438;16.744;2024-01-30T07:15:42;-0.50;99.90
76936;DHT22;65881;52.438;16.744;2024-01-30T07:18:08;-0.50;99.90
76936;DHT22;65881;52.438;16.744;2024-01-30T07:20:35;-0.50;99.90
76936;DHT22;65881;52.438;16.744;2024-01-30T07:23:00;-0.50;99.90
76936;DHT22;65881;52.438;16.744;2024-01-30T07:25:26;-0.50;99.90
76936;DHT22;65881;52.438;16.744;2024-01-30T07:27:52;-0.40;99.90
76936;DHT22;65881;52.438;16.744;2024-01-30T07:30:20;-0.40;99.90
76936;DHT22;65881;52.438;16.744;2024-01-30T07:32:47;-0.30;99.90
76936;DHT22;65881;52.438;16.744;2024-01-30T07:35:13;-0.30;99.90
76936;DHT22;65881;52.438;16.744;2024-01-30T07:37:39;-0.20;99.90
76936;DHT22;65881;52.438;16.744;2024-01-30T07:40:06;-0.10;99.90
76936;DHT22;65881;52.438;16.744;2024-01-30T07:42:32;-0.10;99.90
76936;DHT22;65881;52.438;16.744;2024-01-30T07:44:58;0.00;99.90
76936;DHT22;65881;52.438;16.744;2024-01-30T07:47:24;0.00;99.90
76936;DHT22;65881;52.438;16.744;2024-01-30T07:49:50;0.10;99.90
76936;DHT22;65881;52.438;16.744;2024-01-30T07:52:16;0.20;99.90
76936;DHT22;65881;52.438;16.744;2024-01-30T07:54:48;0.30;99.90
76936;DHT22;65881;52.438;16.744;2024-01-30T07:57:14;0.30;99.90
76936;DHT22;65881;52.438;16.744;2024-01-30T07:59:44;0.30;99.90
76936;DHT22;65881;52.438;16.744;2024-01-30T08:02:12;0.40;99.90
76936;DHT22;65881;52.438;16.744;2024-01-30T08:04:38;0.50;99.90
76936;DHT22;65881;52.438;16.744;2024-01-30T08:07:04;0.50;99.90
76936;DHT22;65881;52.438;16.744;2024-01-30T08:09:30;0.60;99.90
76936;DHT22;65881;52.438;16.744;2024-01-30T08:11:55;0.60;99.90
76936;DHT22;65881;52.438;16.744;2024-01-30T08:14:21;0.60;99.90
76936;DHT22;65881;52.438;16.744;2024-01-30T08:16:46;0.70;99.90
76936;DHT22;65881;52.438;16.744;2024-01-30T08:19:12;0.80;99.90
76936;DHT22;65881;52.438;16.744;2024-01-30T08:21:38;1.00;99.90
76936;DHT22;65881;52.438;16.744;2024-01-30T08:24:04;1.00;99.90
76936;DHT22;65881;52.438;16.744;2024-01-30T08:26:33;1.10;99.90
76936;DHT22;65881;52.438;16.744;2024-01-30T08:28:59;1.10;99.90
76936;DHT22;65881;52.438;16.744;2024-01-30T08:31:25;1.20;99.90
76936;DHT22;65881;52.438;16.744;2024-01-30T08:33:50;1.20;99.90
76936;DHT22;65881;52.438;16.744;2024-01-30T08:36:17;1.20;99.90
76936;DHT22;65881;52.438;16.744;2024-01-30T08:38:43;1.20;99.90
76936;DHT22;65881;52.438;16.744;2024-01-30T08:41:09;1.40;99.90
76936;DHT22;65881;52.438;16.744;2024-01-30T08:43:35;1.30;99.90
76936;DHT22;65881;52.438;16.744;2024-01-30T08:46:02;1.40;99.90
76936;DHT22;65881;52.438;16.744;2024-01-30T08:48:27;1.50;99.90
76936;DHT22;65881;52.438;16.744;2024-01-30T08:50:53;1.60;99.90
76936;DHT22;65881;52.438;16.744;2024-01-30T08:53:19;1.70;99.90
76936;DHT22;65881;52.438;16.744;2024-01-30T08:55:45;1.80;99.90
76936;DHT22;65881;52.438;16.744;2024-01-30T08:58:10;1.90;99.90
76936;DHT22;65881;52.438;16.744;2024-01-30T09:00:36;1.90;99.90
76936;DHT22;65881;52.438;16.744;2024-01-30T09:03:02;2.00;99.90
76936;DHT22;65881;52.438;16.744;2024-01-30T09:05:28;2.10;99.90
76936;DHT22;65881;52.438;16.744;2024-01-30T09:07:54;2.10;99.90
76936;DHT22;65881;52.438;16.744;2024-01-30T09:10:19;2.20;99.90
76936;DHT22;65881;52.438;16.744;2024-01-30T09:12:46;2.30;99.90
76936;DHT22;65881;52.438;16.744;2024-01-30T09:15:12;2.40;99.90
76936;DHT22;65881;52.438;16.744;2024-01-30T09:17:38;2.40;99.90
76936;DHT22;65881;52.438;16.744;2024-01-30T09:20:04;2.50;99.90
76936;DHT22;65881;52.438;16.744;2024-01-30T09:22:29;2.50;99.90
76936;DHT22;65881;52.438;16.744;2024-01-30T09:24:55;2.50;99.90
76936;DHT22;65881;52.438;16.744;2024-01-30T09:27:22;2.70;99.90
76936;DHT22;65881;52.438;16.744;2024-01-30T09:29:47;2.80;99.90
76936;DHT22;65881;52.438;16.744;2024-01-30T09:32:13;2.80;99.90
76936;DHT22;65881;52.438;16.744;2024-01-30T09:34:38;2.90;99.90
76936;DHT22;65881;52.438;16.744;2024-01-30T09:37:05;3.00;99.90
76936;DHT22;65881;52.438;16.744;2024-01-30T09:39:30;3.00;99.90
76936;DHT22;65881;52.438;16.744;2024-01-30T09:42:24;3.10;99.90
76936;DHT22;65881;52.438;16.744;2024-01-30T09:44:51;3.10;99.90
76936;DHT22;65881;52.438;16.744;2024-01-30T09:47:18;3.30;99.90
76936;DHT22;65881;52.438;16.744;2024-01-30T09:49:44;3.30;99.90
76936;DHT22;65881;52.438;16.744;2024-01-30T09:52:10;3.30;99.90
76936;DHT22;65881;52.438;16.744;2024-01-30T09:54:36;3.40;99.90
76936;DHT22;65881;52.438;16.744;2024-01-30T09:57:03;3.50;99.90
76936;DHT22;65881;52.438;16.744;2024-01-30T09:59:29;3.50;99.90
76936;DHT22;65881;52.438;16.744;2024-01-30T10:01:55;3.60;99.90
76936;DHT22;65881;52.438;16.744;2024-01-30T10:04:22;3.60;99.90
76936;DHT22;65881;52.438;16.744;2024-01-30T10:06:47;3.80;99.90
76936;DHT22;65881;52.438;16.744;2024-01-30T10:09:13;3.90;99.90
76936;DHT22;65881;52.438;16.744;2024-01-30T10:11:39;3.90;99.90
76936;DHT22;65881;52.438;16.744;2024-01-30T10:14:04;4.00;99.90
76936;DHT22;65881;52.438;16.744;2024-01-30T10:16:30;4.10;99.90
76936;DHT22;65881;52.438;16.744;2024-01-30T10:18:56;4.20;99.90
76936;DHT22;65881;52.438;16.744;2024-01-30T10:21:22;4.40;99.90
76936;DHT22;65881;52.438;16.744;2024-01-30T10:23:47;4.50;99.90
76936;DHT22;65881;52.438;16.744;2024-01-30T10:26:13;4.70;99.90
76936;DHT22;65881;52.438;16.744;2024-01-30T10:28:39;4.70;99.90
76936;DHT22;65881;52.438;16.744;2024-01-30T10:31:04;4.90;99.90
76936;DHT22;65881;52.438;16.744;2024-01-30T10:33:32;4.90;99.90
76936;DHT22;65881;52.438;16.744;2024-01-30T10:36:01;5.00;99.90
76936;DHT22;65881;52.438;16.744;2024-01-30T10:38:32;5.00;99.90
76936;DHT22;65881;52.438;16.744;2024-01-30T10:40:59;5.00;99.90
76936;DHT22;65881;52.438;16.744;2024-01-30T10:43:40;5.10;99.90
76936;DHT22;65881;52.438;16.744;2024-01-30T10:46:10;5.30;99.90
76936;DHT22;65881;52.438;16.744;2024-01-30T10:48:42;5.30;99.90
76936;DHT22;65881;52.438;16.744;2024-01-30T10:51:10;5.40;99.90
76936;DHT22;65881;52.438;16.744;2024-01-30T10:53:36;5.40;99.90
76936;DHT22;65881;52.438;16.744;2024-01-30T10:56:03;5.50;99.90
76936;DHT22;65881;52.438;16.744;2024-01-30T10:58:30;5.50;99.90
76936;DHT22;65881;52.438;16.744;2024-01-30T11:00:55;5.60;99.90
76936;DHT22;65881;52.438;16.744;2024-01-30T11:03:22;5.60;99.90
76936;DHT22;65881;52.438;16.744;2024-01-30T11:05:52;5.60;99.90
76936;DHT22;65881;52.438;16.744;2024-01-30T11:08:24;5.70;99.90
76936;DHT22;65881;52.438;16.744;2024-01-30T11:10:55;5.70;99.90
76936;DHT22;65881;52.438;16.744;2024-01-30T11:13:21;5.80;99.90
76936;DHT22;65881;52.438;16.744;2024-01-30T11:15:50;5.90;99.90
76936;DHT22;65881;52.438;16.744;2024-01-30T11:18:25;6.00;99.90
76936;DHT22;65881;52.438;16.744;2024-01-30T11:20:52;6.10;99.90
76936;DHT22;65881;52.438;16.744;2024-01-30T11:23:18;6.20;99.90
76936;DHT22;65881;52.438;16.744;2024-01-30T11:25:44;6.10;99.90
76936;DHT22;65881;52.438;16.744;2024-01-30T11:28:15;6.10;99.90
76936;DHT22;65881;52.438;16.744;2024-01-30T11:30:42;6.20;99.90
76936;DHT22;65881;52.438;16.744;2024-01-30T11:33:12;6.20;99.90
76936;DHT22;65881;52.438;16.744;2024-01-30T11:35:41;6.20;99.90
76936;DHT22;65881;52.438;16.744;2024-01-30T11:38:09;6.20;99.90
76936;DHT22;65881;52.438;16.744;2024-01-30T11:40:36;6.30;99.90
76936;DHT22;65881;52.438;16.744;2024-01-30T11:43:03;6.40;99.90
76936;DHT22;65881;52.438;16.744;2024-01-30T11:45:30;6.30;99.90
76936;DHT22;65881;52.438;16.744;2024-01-30T11:47:58;6.40;99.90
76936;DHT22;65881;52.438;16.744;2024-01-30T11:50:32;6.40;99.90
76936;DHT22;65881;52.438;16.744;2024-01-30T11:53:03;6.50;99.90
76936;DHT22;65881;52.438;16.744;2024-01-30T11:55:30;6.60;99.90
76936;DHT22;65881;52.438;16.744;2024-01-30T11:57:57;6.60;99.90
76936;DHT22;65881;52.438;16.744;2024-01-30T12:00:23;6.60;99.90
76936;DHT22;65881;52.438;16.744;2024-01-30T12:02:50;6.60;99.90
76936;DHT22;65881;52.438;16.744;2024-01-30T12:05:19;6.60;99.90
76936;DHT22;65881;52.438;16.744;2024-01-30T12:07:46;6.70;99.90
76936;DHT22;65881;52.438;16.744;2024-01-30T12:10:13;6.70;99.90
76936;DHT22;65881;52.438;16.744;2024-01-30T12:12:45;6.70;99.90
76936;DHT22;65881;52.438;16.744;2024-01-30T12:15:12;6.90;99.90
76936;DHT22;65881;52.438;16.744;2024-01-30T12:17:38;6.90;99.90
76936;DHT22;65881;52.438;16.744;2024-01-30T12:20:12;6.80;99.90
76936;DHT22;65881;52.438;16.744;2024-01-30T12:22:40;6.80;99.90
76936;DHT22;65881;52.438;16.744;2024-01-30T12:25:16;6.70;99.90
76936;DHT22;65881;52.438;16.744;2024-01-30T12:27:43;6.70;99.90
76936;DHT22;65881;52.438;16.744;2024-01-30T12:30:11;6.70;99.90
76936;DHT22;65881;52.438;16.744;2024-01-30T12:32:39;6.70;99.90
76936;DHT22;65881;52.438;16.744;2024-01-30T12:35:13;6.70;99.90
76936;DHT22;65881;52.438;16.744;2024-01-30T12:37:40;6.70;99.90
76936;DHT22;65881;52.438;16.744;2024-01-30T12:40:07;6.70;99.90
76936;DHT22;65881;52.438;16.744;2024-01-30T12:42:33;6.70;99.90
76936;DHT22;65881;52.438;16.744;2024-01-30T12:44:59;6.80;99.90
76936;DHT22;65881;52.438;16.744;2024-01-30T12:47:25;6.90;99.90
76936;DHT22;65881;52.438;16.744;2024-01-30T12:49:52;6.90;99.90
76936;DHT22;65881;52.438;16.744;2024-01-30T12:52:20;7.00;99.90
76936;DHT22;65881;52.438;16.744;2024-01-30T12:54:47;7.00;99.90
76936;DHT22;65881;52.438;16.744;2024-01-30T12:57:13;7.00;99.90
76936;DHT22;65881;52.438;16.744;2024-01-30T12:59:38;7.00;99.90
76936;DHT22;65881;52.438;16.744;2024-01-30T13:02:05;7.10;99.90
76936;DHT22;65881;52.438;16.744;2024-01-30T13:04:30;7.20;99.90
76936;DHT22;65881;52.438;16.744;2024-01-30T13:06:56;7.10;99.90
76936;DHT22;65881;52.438;16.744;2024-01-30T13:09:23;7.00;99.90
76936;DHT22;65881;52.438;16.744;2024-01-30T13:11:49;7.10;99.90
76936;DHT22;65881;52.438;16.744;2024-01-30T13:14:16;7.20;99.90
76936;DHT22;65881;52.438;16.744;2024-01-30T13:16:41;7.20;99.90
76936;DHT22;65881;52.438;16.744;2024-01-30T13:19:07;7.30;99.90
76936;DHT22;65881;52.438;16.744;2024-01-30T13:21:32;7.20;99.90
76936;DHT22;65881;52.438;16.744;2024-01-30T13:23:58;7.20;99.90
76936;DHT22;65881;52.438;16.744;2024-01-30T13:26:23;7.20;99.90
76936;DHT22;65881;52.438;16.744;2024-01-30T13:28:49;7.40;99.90
76936;DHT22;65881;52.438;16.744;2024-01-30T13:31:15;7.30;99.90
76936;DHT22;65881;52.438;16.744;2024-01-30T13:33:41;7.30;99.90
76936;DHT22;65881;52.438;16.744;2024-01-30T13:36:10;7.30;99.90
76936;DHT22;65881;52.438;16.744;2024-01-30T13:38:36;7.40;99.90
76936;DHT22;65881;52.438;16.744;2024-01-30T13:41:02;7.40;99.90
76936;DHT22;65881;52.438;16.744;2024-01-30T13:43:28;7.30;99.90
76936;DHT22;65881;52.438;16.744;2024-01-30T13:45:54;7.40;99.90
76936;DHT22;65881;52.438;16.744;2024-01-30T13:48:19;7.40;99.90
76936;DHT22;65881;52.438;16.744;2024-01-30T13:50:45;7.40;99.90
76936;DHT22;65881;52.438;16.744;2024-01-30T13:53:11;7.40;99.90
76936;DHT22;65881;52.438;16.744;2024-01-30T13:55:37;7.40;99.90
76936;DHT22;65881;52.438;16.744;2024-01-30T13:58:04;7.40;99.90
76936;DHT22;65881;52.438;16.744;2024-01-30T14:00:30;7.40;99.90
76936;DHT22;65881;52.438;16.744;2024-01-30T14:02:55;7.20;99.90
76936;DHT22;65881;52.438;16.744;2024-01-30T14:05:23;7.20;99.90
76936;DHT22;65881;52.438;16.744;2024-01-30T14:07:48;7.20;99.90
76936;DHT22;65881;52.438;16.744;2024-01-30T14:10:15;7.20;99.90
76936;DHT22;65881;52.438;16.744;2024-01-30T14:12:42;7.20;99.90
76936;DHT22;65881;52.438;16.744;2024-01-30T14:15:08;7.10;99.90
76936;DHT22;65881;52.438;16.744;2024-01-30T14:17:35;7.00;99.90
76936;DHT22;65881;52.438;16.744;2024-01-30T14:20:02;7.00;99.90
76936;DHT22;65881;52.438;16.744;2024-01-30T14:22:28;6.90;99.90
76936;DHT22;65881;52.438;16.744;2024-01-30T14:24:54;6.90;99.90
76936;DHT22;65881;52.438;16.744;2024-01-30T14:27:19;6.90;99.90
76936;DHT22;65881;52.438;16.744;2024-01-30T14:29:45;6.90;99.90
76936;DHT22;65881;52.438;16.744;2024-01-30T14:32:11;6.90;99.90
76936;DHT22;65881;52.438;16.744;2024-01-30T14:34:38;6.80;99.90
76936;DHT22;65881;52.438;16.744;2024-01-30T14:37:04;6.60;99.90
76936;DHT22;65881;52.438;16.744;2024-01-30T14:39:30;6.60;99.90
76936;DHT22;65881;52.438;16.744;2024-01-30T14:41:55;6.50;99.90
76936;DHT22;65881;52.438;16.744;2024-01-30T14:44:21;6.40;99.90
76936;DHT22;65881;52.438;16.744;2024-01-30T14:46:48;6.40;99.90
76936;DHT22;65881;52.438;16.744;2024-01-30T14:49:14;6.30;99.90
76936;DHT22;65881;52.438;16.744;2024-01-30T14:51:41;6.20;99.90
76936;DHT22;65881;52.438;16.744;2024-01-30T14:54:06;6.20;99.90
76936;DHT22;65881;52.438;16.744;2024-01-30T14:56:32;6.10;99.90
76936;DHT22;65881;52.438;16.744;2024-01-30T14:58:58;6.10;99.90
76936;DHT22;65881;52.438;16.744;2024-01-30T15:01:24;6.00;99.90
76936;DHT22;65881;52.438;16.744;2024-01-30T15:03:50;5.90;99.90
76936;DHT22;65881;52.438;16.744;2024-01-30T15:06:18;5.80;99.90
76936;DHT22;65881;52.438;16.744;2024-01-30T15:08:44;5.70;99.90
76936;DHT22;65881;52.438;16.744;2024-01-30T15:11:10;5.60;99.90
76936;DHT22;65881;52.438;16.744;2024-01-30T15:13:36;5.50;99.90
76936;DHT22;65881;52.438;16.744;2024-01-30T15:16:02;5.30;99.90
76936;DHT22;65881;52.438;16.744;2024-01-30T15:18:30;5.20;99.90